FNY3995 LFRH-LFRJ
Flight info
| Callsign | FNY3995 |
|---|---|
| Flight time | 1h 34m |
| Altitude | 4500 |
| Route | OAT AV 4545N00338W DCT 4626N0050W DCT 4739N00747W DCT 4921N0053W |
| Aircraft | PC24/M-SBDGIRWY/LB2 |
Departure
| Time | 2026-04-29 18:41 |
|---|---|
| Airport | Lorient South Brittany (Bretagne Sud) Airport (LFRH) |
Arrival
| Time | 2026-04-29 20:16 |
|---|---|
| Airport | Landivisiau Air Base (LFRJ) |
| Time | Latitude | Longitude | Altitude | Speed | Heading |
|---|---|---|---|---|---|
| 2026-04-29 18:33 | 47.75027 | -3.45071 | 164 ft | 0 kts | 73° |
| 2026-04-29 18:34 | 47.75037 | -3.45037 | 164 ft | 7 kts | 59° |
| 2026-04-29 18:34 | 47.75067 | -3.45037 | 164 ft | 4 kts | 355° |
| 2026-04-29 18:35 | 47.75113 | -3.45056 | 164 ft | 7 kts | 338° |
| 2026-04-29 18:35 | 47.75164 | -3.45080 | 164 ft | 11 kts | 343° |
| 2026-04-29 18:35 | 47.75232 | -3.45111 | 164 ft | 9 kts | 343° |
| 2026-04-29 18:35 | 47.75297 | -3.45143 | 164 ft | 10 kts | 336° |
| 2026-04-29 18:36 | 47.75302 | -3.45232 | 164 ft | 11 kts | 257° |
| 2026-04-29 18:36 | 47.75280 | -3.45374 | 164 ft | 17 kts | 257° |
| 2026-04-29 18:36 | 47.75290 | -3.45543 | 164 ft | 16 kts | 296° |
| 2026-04-29 18:36 | 47.75335 | -3.45672 | 164 ft | 13 kts | 298° |
| 2026-04-29 18:37 | 47.75375 | -3.45767 | 164 ft | 9 kts | 322° |
| 2026-04-29 18:37 | 47.75429 | -3.45809 | 164 ft | 10 kts | 343° |
| 2026-04-29 18:37 | 47.75492 | -3.45836 | 164 ft | 8 kts | 344° |
| 2026-04-29 18:37 | 47.75504 | -3.45842 | 164 ft | 0 kts | 344° |
| 2026-04-29 18:38 | 47.75508 | -3.45843 | 164 ft | 0 kts | 344° |
| 2026-04-29 18:39 | 47.75510 | -3.45844 | 164 ft | 3 kts | 343° |
| 2026-04-29 18:40 | 47.75587 | -3.45883 | 164 ft | 13 kts | 342° |
| 2026-04-29 18:40 | 47.75642 | -3.45840 | 165 ft | 8 kts | 70° |
| 2026-04-29 18:40 | 47.75655 | -3.45784 | 165 ft | 5 kts | 72° |
| 2026-04-29 18:40 | 47.75715 | -3.45511 | 164 ft | 58 kts | 72° |
| 2026-04-29 18:41 | 47.76534 | -3.41728 | 578 ft | 174 kts | 65° |
| 2026-04-29 18:41 | 47.77484 | -3.40696 | 1291 ft | 190 kts | 8° |
| 2026-04-29 18:42 | 47.78730 | -3.41673 | 1644 ft | 237 kts | 298° |
| 2026-04-29 18:42 | 47.78512 | -3.43855 | 1607 ft | 219 kts | 211° |
| 2026-04-29 18:42 | 47.77272 | -3.43804 | 1402 ft | 183 kts | 125° |
| 2026-04-29 18:42 | 47.77355 | -3.42071 | 1162 ft | 190 kts | 45° |
| 2026-04-29 18:43 | 47.78627 | -3.41918 | 993 ft | 202 kts | 328° |
| 2026-04-29 18:43 | 47.79321 | -3.43619 | 1078 ft | 210 kts | 274° |
| 2026-04-29 18:43 | 47.79563 | -3.45572 | 2342 ft | 173 kts | 294° |
| 2026-04-29 18:43 | 47.79856 | -3.47305 | 2841 ft | 191 kts | 252° |
| 2026-04-29 18:44 | 47.79122 | -3.48891 | 2940 ft | 185 kts | 195° |
| 2026-04-29 18:44 | 47.77995 | -3.48852 | 3596 ft | 163 kts | 145° |
| 2026-04-29 18:44 | 47.77239 | -3.47543 | 4155 ft | 174 kts | 124° |
| 2026-04-29 18:44 | 47.76441 | -3.46129 | 4716 ft | 187 kts | 149° |
| 2026-04-29 18:45 | 47.75087 | -3.45848 | 5289 ft | 209 kts | 178° |
| 2026-04-29 18:45 | 47.73605 | -3.46086 | 5818 ft | 223 kts | 181° |
| 2026-04-29 18:45 | 47.72027 | -3.46297 | 6009 ft | 231 kts | 179° |
| 2026-04-29 18:45 | 47.70417 | -3.46451 | 5999 ft | 230 kts | 178° |
| 2026-04-29 18:46 | 47.68839 | -3.46594 | 5990 ft | 225 kts | 178° |
| 2026-04-29 18:46 | 47.67268 | -3.46739 | 5988 ft | 232 kts | 179° |
| 2026-04-29 18:46 | 47.65603 | -3.46893 | 6006 ft | 244 kts | 179° |
| 2026-04-29 18:46 | 47.63885 | -3.47060 | 6004 ft | 249 kts | 179° |
| 2026-04-29 18:47 | 47.62173 | -3.47226 | 6000 ft | 251 kts | 179° |
| 2026-04-29 18:47 | 47.60425 | -3.47390 | 6001 ft | 252 kts | 179° |
| 2026-04-29 18:47 | 47.58680 | -3.47557 | 5966 ft | 251 kts | 179° |
| 2026-04-29 18:47 | 47.56936 | -3.47722 | 5915 ft | 249 kts | 179° |
| 2026-04-29 18:48 | 47.55217 | -3.47887 | 5909 ft | 246 kts | 179° |
| 2026-04-29 18:48 | 47.53489 | -3.48046 | 5913 ft | 250 kts | 180° |
| 2026-04-29 18:48 | 47.51730 | -3.48213 | 5916 ft | 255 kts | 180° |
| 2026-04-29 18:48 | 47.49956 | -3.48380 | 5915 ft | 256 kts | 180° |
| 2026-04-29 18:49 | 47.48171 | -3.48552 | 5914 ft | 256 kts | 180° |
| 2026-04-29 18:49 | 47.46392 | -3.48718 | 5915 ft | 255 kts | 180° |
| 2026-04-29 18:49 | 47.44619 | -3.48886 | 5913 ft | 255 kts | 180° |
| 2026-04-29 18:49 | 47.42875 | -3.49050 | 5910 ft | 254 kts | 180° |
| 2026-04-29 18:50 | 47.41111 | -3.49216 | 5912 ft | 253 kts | 180° |
| 2026-04-29 18:50 | 47.39351 | -3.49382 | 5916 ft | 254 kts | 180° |
| 2026-04-29 18:50 | 47.37575 | -3.49548 | 5911 ft | 256 kts | 180° |
| 2026-04-29 18:50 | 47.35793 | -3.49715 | 5912 ft | 256 kts | 180° |
| 2026-04-29 18:51 | 47.34011 | -3.49882 | 5919 ft | 256 kts | 180° |
| 2026-04-29 18:51 | 47.32234 | -3.50052 | 5910 ft | 256 kts | 180° |
| 2026-04-29 18:51 | 47.30458 | -3.50229 | 5909 ft | 255 kts | 181° |
| 2026-04-29 18:51 | 47.28710 | -3.50413 | 5910 ft | 255 kts | 181° |
| 2026-04-29 18:52 | 47.26918 | -3.50610 | 5912 ft | 254 kts | 181° |
| 2026-04-29 18:52 | 47.25170 | -3.50810 | 5910 ft | 254 kts | 181° |
| 2026-04-29 18:52 | 47.23406 | -3.51021 | 5912 ft | 254 kts | 181° |
| 2026-04-29 18:52 | 47.21642 | -3.51240 | 5923 ft | 254 kts | 181° |
| 2026-04-29 18:53 | 47.19883 | -3.51466 | 5910 ft | 254 kts | 182° |
| 2026-04-29 18:53 | 47.18123 | -3.51701 | 5909 ft | 254 kts | 182° |
| 2026-04-29 18:53 | 47.16360 | -3.51943 | 5911 ft | 254 kts | 182° |
| 2026-04-29 18:53 | 47.14597 | -3.52196 | 5914 ft | 254 kts | 182° |
| 2026-04-29 18:54 | 47.12831 | -3.52457 | 5910 ft | 254 kts | 182° |
| 2026-04-29 18:55 | 47.05987 | -3.53546 | 5915 ft | 255 kts | 184° |
| 2026-04-29 18:55 | 47.04223 | -3.53847 | 5921 ft | 254 kts | 184° |
| 2026-04-29 18:55 | 47.02465 | -3.54154 | 5920 ft | 254 kts | 184° |
| 2026-04-29 18:55 | 47.00707 | -3.54471 | 5915 ft | 254 kts | 184° |
| 2026-04-29 18:56 | 46.98954 | -3.54795 | 5914 ft | 254 kts | 184° |
| 2026-04-29 18:56 | 46.97200 | -3.55129 | 5915 ft | 254 kts | 184° |
| 2026-04-29 18:56 | 46.95183 | -3.55520 | 5921 ft | 254 kts | 184° |
| 2026-04-29 18:56 | 46.93435 | -3.55869 | 5919 ft | 254 kts | 185° |
| 2026-04-29 18:57 | 46.91698 | -3.55931 | 5900 ft | 249 kts | 164° |
| 2026-04-29 18:57 | 46.90263 | -3.54590 | 5913 ft | 247 kts | 137° |
| 2026-04-29 18:57 | 46.88782 | -3.53368 | 5707 ft | 253 kts | 168° |
| 2026-04-29 18:57 | 46.86985 | -3.53598 | 5401 ft | 267 kts | 191° |
| 2026-04-29 18:58 | 46.85173 | -3.54276 | 5084 ft | 274 kts | 190° |
| 2026-04-29 18:58 | 46.83301 | -3.54717 | 4755 ft | 268 kts | 182° |
| 2026-04-29 18:58 | 46.81477 | -3.54822 | 4384 ft | 256 kts | 178° |
| 2026-04-29 18:58 | 46.79720 | -3.54903 | 4024 ft | 249 kts | 181° |
| 2026-04-29 18:59 | 46.77999 | -3.55073 | 3661 ft | 246 kts | 181° |
| 2026-04-29 18:59 | 46.76304 | -3.55243 | 3309 ft | 243 kts | 181° |
| 2026-04-29 18:59 | 46.74607 | -3.55400 | 2956 ft | 245 kts | 181° |
| 2026-04-29 18:59 | 46.72929 | -3.55553 | 2610 ft | 243 kts | 181° |
| 2026-04-29 19:00 | 46.71238 | -3.55706 | 2252 ft | 241 kts | 181° |
| 2026-04-29 19:00 | 46.69558 | -3.55857 | 1897 ft | 243 kts | 181° |
| 2026-04-29 19:00 | 46.67875 | -3.56014 | 1561 ft | 240 kts | 181° |
| 2026-04-29 19:00 | 46.66243 | -3.56165 | 1494 ft | 230 kts | 180° |
| 2026-04-29 19:01 | 46.64643 | -3.56311 | 1488 ft | 233 kts | 180° |
| 2026-04-29 19:01 | 46.63007 | -3.56458 | 1485 ft | 236 kts | 181° |
| 2026-04-29 19:01 | 46.61368 | -3.56607 | 1493 ft | 240 kts | 181° |
| 2026-04-29 19:01 | 46.59692 | -3.56762 | 1496 ft | 242 kts | 181° |
| 2026-04-29 19:02 | 46.58022 | -3.56825 | 1483 ft | 237 kts | 168° |
| 2026-04-29 19:02 | 46.56996 | -3.56230 | 1321 ft | 238 kts | 144° |
| 2026-04-29 19:02 | 46.55908 | -3.53623 | 994 ft | 231 kts | 98° |
| 2026-04-29 19:02 | 46.55738 | -3.51436 | 980 ft | 206 kts | 117° |
| 2026-04-29 19:03 | 46.54917 | -3.49862 | 988 ft | 187 kts | 133° |
| 2026-04-29 19:03 | 46.54076 | -3.48517 | 986 ft | 172 kts | 134° |
| 2026-04-29 19:03 | 46.53142 | -3.47649 | 967 ft | 161 kts | 174° |
| 2026-04-29 19:03 | 46.52088 | -3.47941 | 992 ft | 151 kts | 193° |
| 2026-04-29 19:04 | 46.51195 | -3.48743 | 986 ft | 155 kts | 218° |
| 2026-04-29 19:04 | 46.50598 | -3.50069 | 994 ft | 162 kts | 245° |
| 2026-04-29 19:04 | 46.50440 | -3.51723 | 1002 ft | 169 kts | 264° |
| 2026-04-29 19:04 | 46.50423 | -3.53453 | 999 ft | 173 kts | 261° |
| 2026-04-29 19:05 | 46.50389 | -3.54612 | 1001 ft | 172 kts | 262° |
| 2026-04-29 19:05 | 46.50332 | -3.56341 | 997 ft | 170 kts | 261° |
| 2026-04-29 19:05 | 46.50268 | -3.58049 | 983 ft | 170 kts | 259° |
| 2026-04-29 19:05 | 46.50181 | -3.60335 | 980 ft | 172 kts | 262° |
| 2026-04-29 19:06 | 46.50137 | -3.61508 | 991 ft | 171 kts | 262° |
| 2026-04-29 19:06 | 46.50072 | -3.63229 | 988 ft | 172 kts | 262° |
| 2026-04-29 19:06 | 46.49933 | -3.66789 | 1004 ft | 179 kts | 262° |
| 2026-04-29 19:07 | 46.49865 | -3.68572 | 999 ft | 179 kts | 262° |
| 2026-04-29 19:07 | 46.49820 | -3.69781 | 995 ft | 176 kts | 261° |
| 2026-04-29 19:07 | 46.49735 | -3.72133 | 984 ft | 173 kts | 260° |
| 2026-04-29 19:07 | 46.49661 | -3.73879 | 985 ft | 175 kts | 262° |
| 2026-04-29 19:08 | 46.49587 | -3.75651 | 989 ft | 175 kts | 262° |
| 2026-04-29 19:08 | 46.49521 | -3.77423 | 987 ft | 176 kts | 262° |
| 2026-04-29 19:08 | 46.49453 | -3.79170 | 997 ft | 175 kts | 262° |
| 2026-04-29 19:08 | 46.49382 | -3.80958 | 984 ft | 178 kts | 262° |
| 2026-04-29 19:09 | 46.49308 | -3.82758 | 988 ft | 180 kts | 261° |
| 2026-04-29 19:09 | 46.49239 | -3.84569 | 990 ft | 178 kts | 263° |
| 2026-04-29 19:09 | 46.49170 | -3.86338 | 997 ft | 175 kts | 263° |
| 2026-04-29 19:09 | 46.49099 | -3.88088 | 988 ft | 173 kts | 263° |
| 2026-04-29 19:10 | 46.49027 | -3.89838 | 979 ft | 176 kts | 261° |
| 2026-04-29 19:10 | 46.48959 | -3.91627 | 991 ft | 181 kts | 261° |
| 2026-04-29 19:10 | 46.48877 | -3.93453 | 990 ft | 182 kts | 263° |
| 2026-04-29 19:10 | 46.48806 | -3.95256 | 993 ft | 177 kts | 263° |
| 2026-04-29 19:11 | 46.48731 | -3.97029 | 976 ft | 175 kts | 262° |
| 2026-04-29 19:11 | 46.48663 | -3.98793 | 992 ft | 176 kts | 262° |
| 2026-04-29 19:11 | 46.48590 | -4.00564 | 990 ft | 175 kts | 262° |
| 2026-04-29 19:11 | 46.48519 | -4.02323 | 982 ft | 175 kts | 262° |
| 2026-04-29 19:12 | 46.48446 | -4.04083 | 990 ft | 175 kts | 263° |
| 2026-04-29 19:12 | 46.48380 | -4.05859 | 988 ft | 178 kts | 263° |
| 2026-04-29 19:12 | 46.48294 | -4.07643 | 1002 ft | 176 kts | 263° |
| 2026-04-29 19:12 | 46.48244 | -4.08811 | 993 ft | 174 kts | 262° |
| 2026-04-29 19:13 | 46.48144 | -4.11167 | 977 ft | 176 kts | 262° |
| 2026-04-29 19:13 | 46.48069 | -4.12953 | 992 ft | 178 kts | 262° |
| 2026-04-29 19:13 | 46.47992 | -4.14753 | 1003 ft | 178 kts | 263° |
| 2026-04-29 19:13 | 46.47917 | -4.16539 | 985 ft | 177 kts | 263° |
| 2026-04-29 19:14 | 46.47842 | -4.18298 | 983 ft | 177 kts | 261° |
| 2026-04-29 19:14 | 46.47763 | -4.20094 | 985 ft | 177 kts | 261° |
| 2026-04-29 19:14 | 46.47689 | -4.21856 | 986 ft | 174 kts | 262° |
| 2026-04-29 19:14 | 46.47606 | -4.23596 | 974 ft | 172 kts | 262° |
| 2026-04-29 19:15 | 46.47534 | -4.25345 | 980 ft | 175 kts | 261° |
| 2026-04-29 19:15 | 46.47457 | -4.27134 | 1000 ft | 183 kts | 262° |
| 2026-04-29 19:15 | 46.47372 | -4.29059 | 1019 ft | 202 kts | 262° |
| 2026-04-29 19:15 | 46.47272 | -4.31219 | 1022 ft | 229 kts | 263° |
| 2026-04-29 19:16 | 46.47162 | -4.33681 | 1023 ft | 256 kts | 264° |
| 2026-04-29 19:16 | 46.47051 | -4.36303 | 1002 ft | 263 kts | 264° |
| 2026-04-29 19:16 | 46.46937 | -4.38944 | 999 ft | 265 kts | 263° |
| 2026-04-29 19:16 | 46.46818 | -4.41602 | 986 ft | 263 kts | 264° |
| 2026-04-29 19:17 | 46.46699 | -4.44268 | 993 ft | 266 kts | 264° |
| 2026-04-29 19:17 | 46.46576 | -4.46939 | 998 ft | 264 kts | 263° |
| 2026-04-29 19:17 | 46.46456 | -4.49582 | 991 ft | 263 kts | 264° |
| 2026-04-29 19:17 | 46.46333 | -4.52243 | 984 ft | 264 kts | 264° |
| 2026-04-29 19:18 | 46.46257 | -4.54900 | 1085 ft | 260 kts | 272° |
| 2026-04-29 19:18 | 46.46624 | -4.56506 | 1439 ft | 256 kts | 306° |
| 2026-04-29 19:18 | 46.48693 | -4.57266 | 1353 ft | 238 kts | 32° |
| 2026-04-29 19:18 | 46.49769 | -4.55625 | 1240 ft | 214 kts | 57° |
| 2026-04-29 19:19 | 46.51050 | -4.54761 | 1171 ft | 216 kts | 349° |
| 2026-04-29 19:19 | 46.52013 | -4.56205 | 1051 ft | 206 kts | 278° |
| 2026-04-29 19:19 | 46.51823 | -4.58132 | 879 ft | 187 kts | 245° |
| 2026-04-29 19:19 | 46.51322 | -4.59856 | 599 ft | 184 kts | 244° |
| 2026-04-29 19:20 | 46.50742 | -4.61473 | 462 ft | 173 kts | 234° |
| 2026-04-29 19:20 | 46.49941 | -4.62786 | 172 ft | 175 kts | 219° |
| 2026-04-29 19:20 | 46.49091 | -4.63907 | 313 ft | 156 kts | 218° |
| 2026-04-29 19:20 | 46.48264 | -4.64948 | 547 ft | 168 kts | 216° |
| 2026-04-29 19:21 | 46.47381 | -4.66061 | 849 ft | 166 kts | 216° |
| 2026-04-29 19:21 | 46.46519 | -4.67220 | 992 ft | 177 kts | 223° |
| 2026-04-29 19:21 | 46.45827 | -4.68730 | 990 ft | 180 kts | 238° |
| 2026-04-29 19:21 | 46.45469 | -4.70438 | 979 ft | 180 kts | 259° |
| 2026-04-29 19:22 | 46.45378 | -4.72268 | 979 ft | 179 kts | 262° |
| 2026-04-29 19:22 | 46.45305 | -4.74051 | 977 ft | 179 kts | 262° |
| 2026-04-29 19:22 | 46.45225 | -4.75866 | 984 ft | 180 kts | 262° |
| 2026-04-29 19:22 | 46.45138 | -4.77681 | 985 ft | 181 kts | 262° |
| 2026-04-29 19:23 | 46.45050 | -4.79508 | 980 ft | 182 kts | 261° |
| 2026-04-29 19:23 | 46.44963 | -4.81343 | 988 ft | 184 kts | 262° |
| 2026-04-29 19:23 | 46.44871 | -4.83192 | 994 ft | 183 kts | 262° |
| 2026-04-29 19:23 | 46.44778 | -4.85035 | 991 ft | 182 kts | 263° |
| 2026-04-29 19:24 | 46.44692 | -4.86839 | 973 ft | 182 kts | 262° |
| 2026-04-29 19:24 | 46.44604 | -4.88676 | 982 ft | 184 kts | 262° |
| 2026-04-29 19:24 | 46.44511 | -4.90535 | 990 ft | 184 kts | 263° |
| 2026-04-29 19:24 | 46.44421 | -4.92387 | 986 ft | 183 kts | 262° |
| 2026-04-29 19:25 | 46.44332 | -4.94216 | 987 ft | 181 kts | 261° |
| 2026-04-29 19:25 | 46.44239 | -4.96044 | 978 ft | 182 kts | 263° |
| 2026-04-29 19:25 | 46.44147 | -4.97882 | 975 ft | 182 kts | 263° |
| 2026-04-29 19:25 | 46.44059 | -4.99705 | 976 ft | 180 kts | 262° |
| 2026-04-29 19:26 | 46.43967 | -5.01514 | 982 ft | 180 kts | 263° |
| 2026-04-29 19:26 | 46.43874 | -5.03338 | 982 ft | 182 kts | 262° |
| 2026-04-29 19:26 | 46.43782 | -5.05174 | 975 ft | 181 kts | 262° |
| 2026-04-29 19:26 | 46.43690 | -5.06999 | 976 ft | 181 kts | 263° |
| 2026-04-29 19:27 | 46.43600 | -5.08803 | 986 ft | 181 kts | 263° |
| 2026-04-29 19:27 | 46.43637 | -5.10626 | 962 ft | 185 kts | 289° |
| 2026-04-29 19:27 | 46.44472 | -5.11988 | 993 ft | 182 kts | 333° |
| 2026-04-29 19:27 | 46.45680 | -5.12222 | 996 ft | 173 kts | 18° |
| 2026-04-29 19:28 | 46.46650 | -5.11349 | 988 ft | 162 kts | 57° |
| 2026-04-29 19:28 | 46.47041 | -5.09890 | 997 ft | 154 kts | 89° |
| 2026-04-29 19:28 | 46.47114 | -5.08344 | 995 ft | 154 kts | 88° |
| 2026-04-29 19:28 | 46.47202 | -5.06778 | 995 ft | 157 kts | 89° |
| 2026-04-29 19:29 | 46.47281 | -5.05178 | 992 ft | 160 kts | 89° |
| 2026-04-29 19:29 | 46.47360 | -5.03578 | 985 ft | 157 kts | 90° |
| 2026-04-29 19:29 | 46.47405 | -5.02016 | 971 ft | 153 kts | 99° |
| 2026-04-29 19:29 | 46.46939 | -5.00692 | 986 ft | 152 kts | 132° |
| 2026-04-29 19:30 | 46.46011 | -4.99937 | 993 ft | 158 kts | 166° |
| 2026-04-29 19:30 | 46.44908 | -5.00135 | 993 ft | 168 kts | 201° |
| 2026-04-29 19:30 | 46.44080 | -5.01351 | 1000 ft | 178 kts | 242° |
| 2026-04-29 19:30 | 46.43860 | -5.03149 | 999 ft | 185 kts | 263° |
| 2026-04-29 19:31 | 46.43776 | -5.05024 | 988 ft | 186 kts | 263° |
| 2026-04-29 19:31 | 46.43690 | -5.06903 | 984 ft | 187 kts | 264° |
| 2026-04-29 19:31 | 46.43598 | -5.08778 | 990 ft | 187 kts | 263° |
| 2026-04-29 19:31 | 46.43642 | -5.10642 | 969 ft | 191 kts | 289° |
| 2026-04-29 19:32 | 46.44527 | -5.12040 | 993 ft | 191 kts | 336° |
| 2026-04-29 19:32 | 46.45793 | -5.12191 | 994 ft | 182 kts | 21° |
| 2026-04-29 19:32 | 46.46758 | -5.11142 | 1004 ft | 171 kts | 62° |
| 2026-04-29 19:32 | 46.47066 | -5.09515 | 1003 ft | 168 kts | 89° |
| 2026-04-29 19:33 | 46.47151 | -5.07765 | 995 ft | 183 kts | 88° |
| 2026-04-29 19:33 | 46.47247 | -5.05789 | 1006 ft | 210 kts | 88° |
| 2026-04-29 19:33 | 46.47356 | -5.03565 | 1273 ft | 223 kts | 89° |
| 2026-04-29 19:33 | 46.47239 | -5.01339 | 2058 ft | 223 kts | 113° |
| 2026-04-29 19:34 | 46.46200 | -4.99768 | 2811 ft | 227 kts | 155° |
| 2026-04-29 19:34 | 46.44625 | -4.99604 | 3583 ft | 236 kts | 194° |
| 2026-04-29 19:34 | 46.43276 | -5.01009 | 4356 ft | 251 kts | 232° |
| 2026-04-29 19:34 | 46.42768 | -5.03456 | 5117 ft | 265 kts | 268° |
| 2026-04-29 19:35 | 46.43093 | -5.06128 | 5914 ft | 271 kts | 281° |
| 2026-04-29 19:35 | 46.43473 | -5.08819 | 6665 ft | 273 kts | 276° |
| 2026-04-29 19:35 | 46.43570 | -5.11581 | 7399 ft | 275 kts | 264° |
| 2026-04-29 19:35 | 46.43307 | -5.14328 | 8153 ft | 276 kts | 254° |
| 2026-04-29 19:36 | 46.42691 | -5.16961 | 8910 ft | 276 kts | 242° |
| 2026-04-29 19:36 | 46.41741 | -5.19328 | 9678 ft | 275 kts | 231° |
| 2026-04-29 19:36 | 46.40485 | -5.21402 | 10401 ft | 274 kts | 220° |
| 2026-04-29 19:36 | 46.38977 | -5.23085 | 11142 ft | 272 kts | 209° |
| 2026-04-29 19:37 | 46.37289 | -5.24301 | 11886 ft | 270 kts | 198° |
| 2026-04-29 19:37 | 46.36078 | -5.24839 | 12397 ft | 269 kts | 191° |
| 2026-04-29 19:37 | 46.33626 | -5.25196 | 13428 ft | 267 kts | 176° |
| 2026-04-29 19:37 | 46.31784 | -5.24843 | 14061 ft | 270 kts | 166° |
| 2026-04-29 19:38 | 46.29979 | -5.23960 | 14563 ft | 277 kts | 155° |
| 2026-04-29 19:38 | 46.28504 | -5.22155 | 15063 ft | 287 kts | 126° |
| 2026-04-29 19:38 | 46.27687 | -5.19482 | 15583 ft | 298 kts | 106° |
| 2026-04-29 19:38 | 46.27635 | -5.16402 | 15869 ft | 321 kts | 83° |
| 2026-04-29 19:39 | 46.28562 | -5.13336 | 15895 ft | 352 kts | 56° |
| 2026-04-29 19:39 | 46.30400 | -5.11097 | 15900 ft | 350 kts | 29° |
| 2026-04-29 19:39 | 46.32796 | -5.10262 | 15905 ft | 365 kts | 2° |
| 2026-04-29 19:39 | 46.35377 | -5.10482 | 15905 ft | 375 kts | 354° |
| 2026-04-29 19:40 | 46.37979 | -5.11017 | 15904 ft | 379 kts | 351° |
| 2026-04-29 19:40 | 46.40587 | -5.11611 | 15901 ft | 377 kts | 353° |
| 2026-04-29 19:40 | 46.43200 | -5.11978 | 15901 ft | 376 kts | 356° |
| 2026-04-29 19:40 | 46.45811 | -5.12238 | 15900 ft | 376 kts | 356° |
| 2026-04-29 19:41 | 46.48387 | -5.12598 | 15898 ft | 377 kts | 354° |
| 2026-04-29 19:41 | 46.51005 | -5.13022 | 15899 ft | 378 kts | 354° |
| 2026-04-29 19:41 | 46.53631 | -5.13397 | 15901 ft | 379 kts | 355° |
| 2026-04-29 19:41 | 46.56256 | -5.13748 | 15902 ft | 379 kts | 355° |
| 2026-04-29 19:42 | 46.58883 | -5.14122 | 15900 ft | 378 kts | 355° |
| 2026-04-29 19:42 | 46.59767 | -5.14250 | 15900 ft | 378 kts | 355° |
| 2026-04-29 19:42 | 46.64116 | -5.14874 | 15902 ft | 378 kts | 355° |
| 2026-04-29 19:42 | 46.66732 | -5.15247 | 15902 ft | 377 kts | 355° |
| 2026-04-29 19:43 | 46.69335 | -5.15615 | 15903 ft | 377 kts | 355° |
| 2026-04-29 19:43 | 46.71961 | -5.15994 | 15902 ft | 377 kts | 355° |
| 2026-04-29 19:43 | 46.74536 | -5.16361 | 15902 ft | 377 kts | 355° |
| 2026-04-29 19:43 | 46.77147 | -5.16736 | 15902 ft | 377 kts | 355° |
| 2026-04-29 19:44 | 46.79762 | -5.17110 | 15903 ft | 376 kts | 355° |
| 2026-04-29 19:44 | 46.82369 | -5.17481 | 15905 ft | 376 kts | 355° |
| 2026-04-29 19:44 | 46.84980 | -5.17861 | 15904 ft | 376 kts | 355° |
| 2026-04-29 19:44 | 46.87589 | -5.18235 | 15903 ft | 377 kts | 355° |
| 2026-04-29 19:45 | 46.90166 | -5.18606 | 15903 ft | 377 kts | 355° |
| 2026-04-29 19:45 | 46.92784 | -5.18981 | 15903 ft | 378 kts | 355° |
| 2026-04-29 19:45 | 46.95407 | -5.19361 | 15905 ft | 379 kts | 355° |
| 2026-04-29 19:45 | 46.98046 | -5.19742 | 15906 ft | 380 kts | 355° |
| 2026-04-29 19:46 | 47.00684 | -5.20123 | 15908 ft | 380 kts | 355° |
| 2026-04-29 19:46 | 47.03314 | -5.20504 | 15912 ft | 380 kts | 355° |
| 2026-04-29 19:46 | 47.05944 | -5.20884 | 15911 ft | 379 kts | 355° |
| 2026-04-29 19:46 | 47.08563 | -5.21265 | 15909 ft | 377 kts | 355° |
| 2026-04-29 19:47 | 47.11175 | -5.21642 | 15908 ft | 377 kts | 355° |
| 2026-04-29 19:47 | 47.12907 | -5.21895 | 15908 ft | 377 kts | 355° |
| 2026-04-29 19:47 | 47.15521 | -5.22273 | 15908 ft | 377 kts | 355° |
| 2026-04-29 19:47 | 47.18990 | -5.22780 | 15912 ft | 378 kts | 355° |
| 2026-04-29 19:48 | 47.20761 | -5.23037 | 15912 ft | 379 kts | 355° |
| 2026-04-29 19:48 | 47.23395 | -5.23420 | 15914 ft | 379 kts | 355° |
| 2026-04-29 19:48 | 47.26001 | -5.23803 | 15915 ft | 380 kts | 355° |
| 2026-04-29 19:48 | 47.28640 | -5.24185 | 15920 ft | 380 kts | 356° |
| 2026-04-29 19:49 | 47.31271 | -5.24571 | 15919 ft | 381 kts | 356° |
| 2026-04-29 19:49 | 47.33908 | -5.24955 | 15920 ft | 381 kts | 356° |
| 2026-04-29 19:49 | 47.36553 | -5.25345 | 15923 ft | 381 kts | 355° |
| 2026-04-29 19:49 | 47.39195 | -5.25730 | 15923 ft | 381 kts | 356° |
| 2026-04-29 19:50 | 47.41832 | -5.26116 | 15926 ft | 382 kts | 355° |
| 2026-04-29 19:50 | 47.44488 | -5.26508 | 15929 ft | 382 kts | 356° |
| 2026-04-29 19:50 | 47.47099 | -5.26890 | 15930 ft | 382 kts | 355° |
| 2026-04-29 19:50 | 47.49744 | -5.27288 | 15923 ft | 382 kts | 356° |
| 2026-04-29 19:51 | 47.52392 | -5.27672 | 15926 ft | 382 kts | 356° |
| 2026-04-29 19:51 | 47.55051 | -5.28061 | 15926 ft | 382 kts | 356° |
| 2026-04-29 19:51 | 47.57700 | -5.28458 | 15926 ft | 383 kts | 356° |
| 2026-04-29 19:51 | 47.60354 | -5.28847 | 15929 ft | 382 kts | 356° |
| 2026-04-29 19:52 | 47.62969 | -5.28569 | 15912 ft | 375 kts | 20° |
| 2026-04-29 19:52 | 47.65202 | -5.26802 | 15926 ft | 366 kts | 40° |
| 2026-04-29 19:52 | 47.67149 | -5.24389 | 15936 ft | 363 kts | 46° |
| 2026-04-29 19:52 | 47.69013 | -5.21835 | 15933 ft | 363 kts | 48° |
| 2026-04-29 19:53 | 47.70847 | -5.19257 | 15934 ft | 363 kts | 48° |
| 2026-04-29 19:53 | 47.72679 | -5.16653 | 15934 ft | 363 kts | 49° |
| 2026-04-29 19:53 | 47.74480 | -5.14095 | 15934 ft | 363 kts | 48° |
| 2026-04-29 19:53 | 47.76304 | -5.11500 | 15934 ft | 363 kts | 49° |
| 2026-04-29 19:54 | 47.79966 | -5.06278 | 15525 ft | 362 kts | 49° |
| 2026-04-29 19:54 | 47.81777 | -5.03691 | 15186 ft | 358 kts | 49° |
| 2026-04-29 19:54 | 47.83565 | -5.01132 | 14865 ft | 355 kts | 49° |
| 2026-04-29 19:55 | 47.85342 | -4.98584 | 14549 ft | 352 kts | 49° |
| 2026-04-29 19:55 | 47.87099 | -4.96065 | 14241 ft | 350 kts | 49° |
| 2026-04-29 19:55 | 47.88852 | -4.93555 | 13933 ft | 348 kts | 49° |
| 2026-04-29 19:55 | 47.90570 | -4.91090 | 13617 ft | 346 kts | 49° |
| 2026-04-29 19:56 | 47.92304 | -4.88613 | 13265 ft | 344 kts | 49° |
| 2026-04-29 19:56 | 47.94030 | -4.86143 | 12925 ft | 343 kts | 49° |
| 2026-04-29 19:56 | 47.95747 | -4.83686 | 12591 ft | 341 kts | 49° |
| 2026-04-29 19:56 | 47.97455 | -4.81241 | 12258 ft | 339 kts | 49° |
| 2026-04-29 19:57 | 47.99155 | -4.78805 | 11912 ft | 337 kts | 49° |
| 2026-04-29 19:57 | 48.00281 | -4.77192 | 11608 ft | 338 kts | 49° |
| 2026-04-29 19:57 | 48.02532 | -4.73961 | 11014 ft | 333 kts | 49° |
| 2026-04-29 19:57 | 48.04194 | -4.71572 | 10575 ft | 329 kts | 49° |
| 2026-04-29 19:58 | 48.05820 | -4.69235 | 10149 ft | 326 kts | 49° |
| 2026-04-29 19:58 | 48.07445 | -4.66897 | 9704 ft | 323 kts | 49° |
| 2026-04-29 19:58 | 48.09058 | -4.64571 | 9235 ft | 320 kts | 49° |
| 2026-04-29 19:58 | 48.10657 | -4.62266 | 8770 ft | 318 kts | 49° |
| 2026-04-29 19:59 | 48.12247 | -4.59967 | 8311 ft | 316 kts | 49° |
| 2026-04-29 19:59 | 48.13824 | -4.57690 | 7859 ft | 314 kts | 49° |
| 2026-04-29 19:59 | 48.15404 | -4.55438 | 7412 ft | 312 kts | 49° |
| 2026-04-29 19:59 | 48.16978 | -4.53201 | 6970 ft | 311 kts | 49° |
| 2026-04-29 20:00 | 48.18531 | -4.50993 | 6526 ft | 310 kts | 49° |
| 2026-04-29 20:00 | 48.20098 | -4.48775 | 6089 ft | 309 kts | 49° |
| 2026-04-29 20:00 | 48.21652 | -4.46595 | 5629 ft | 300 kts | 49° |
| 2026-04-29 20:00 | 48.23144 | -4.44497 | 5182 ft | 288 kts | 49° |
| 2026-04-29 20:01 | 48.24579 | -4.42512 | 5002 ft | 270 kts | 49° |
| 2026-04-29 20:01 | 48.25914 | -4.40688 | 4995 ft | 257 kts | 49° |
| 2026-04-29 20:01 | 48.27224 | -4.38899 | 4997 ft | 255 kts | 49° |
| 2026-04-29 20:01 | 48.28548 | -4.37074 | 4999 ft | 262 kts | 49° |
| 2026-04-29 20:02 | 48.29895 | -4.35209 | 5003 ft | 264 kts | 49° |
| 2026-04-29 20:02 | 48.31199 | -4.33267 | 5001 ft | 261 kts | 57° |
| 2026-04-29 20:02 | 48.32144 | -4.30971 | 5008 ft | 257 kts | 68° |
| 2026-04-29 20:02 | 48.32696 | -4.29357 | 5000 ft | 256 kts | 70° |
| 2026-04-29 20:03 | 48.33778 | -4.26252 | 5000 ft | 251 kts | 70° |
| 2026-04-29 20:03 | 48.34595 | -4.23927 | 5001 ft | 252 kts | 70° |
| 2026-04-29 20:03 | 48.35417 | -4.21589 | 5003 ft | 253 kts | 70° |
| 2026-04-29 20:03 | 48.36235 | -4.19258 | 4995 ft | 251 kts | 70° |
| 2026-04-29 20:04 | 48.37047 | -4.16967 | 5005 ft | 252 kts | 70° |
| 2026-04-29 20:04 | 48.37888 | -4.14656 | 5004 ft | 251 kts | 69° |
| 2026-04-29 20:04 | 48.38724 | -4.12353 | 5009 ft | 251 kts | 70° |
| 2026-04-29 20:04 | 48.39558 | -4.10013 | 4857 ft | 256 kts | 70° |
| 2026-04-29 20:05 | 48.40393 | -4.07677 | 4569 ft | 248 kts | 70° |
| 2026-04-29 20:05 | 48.41210 | -4.05433 | 4283 ft | 239 kts | 69° |
| 2026-04-29 20:05 | 48.41998 | -4.03282 | 3993 ft | 231 kts | 70° |
| 2026-04-29 20:05 | 48.42753 | -4.01222 | 3706 ft | 224 kts | 70° |
| 2026-04-29 20:06 | 48.43500 | -3.99192 | 3418 ft | 220 kts | 70° |
| 2026-04-29 20:06 | 48.44251 | -3.97185 | 3151 ft | 220 kts | 69° |
| 2026-04-29 20:06 | 48.44996 | -3.95185 | 3023 ft | 210 kts | 70° |
| 2026-04-29 20:06 | 48.45703 | -3.93273 | 2995 ft | 210 kts | 69° |
| 2026-04-29 20:07 | 48.46403 | -3.91336 | 3020 ft | 217 kts | 70° |
| 2026-04-29 20:07 | 48.47120 | -3.89293 | 3028 ft | 223 kts | 70° |
| 2026-04-29 20:07 | 48.47877 | -3.87254 | 3001 ft | 219 kts | 71° |
| 2026-04-29 20:07 | 48.48576 | -3.85258 | 3013 ft | 213 kts | 70° |
| 2026-04-29 20:08 | 48.49295 | -3.83298 | 3006 ft | 212 kts | 70° |
| 2026-04-29 20:08 | 48.49775 | -3.82017 | 3003 ft | 212 kts | 69° |
| 2026-04-29 20:08 | 48.50736 | -3.79441 | 3005 ft | 209 kts | 68° |
| 2026-04-29 20:08 | 48.51925 | -3.78006 | 2994 ft | 239 kts | 26° |
| 2026-04-29 20:09 | 48.53613 | -3.78060 | 3018 ft | 256 kts | 344° |
| 2026-04-29 20:09 | 48.54990 | -3.79650 | 3011 ft | 246 kts | 307° |
| 2026-04-29 20:09 | 48.55920 | -3.81753 | 2833 ft | 241 kts | 301° |
| 2026-04-29 20:09 | 48.56805 | -3.83926 | 2495 ft | 244 kts | 300° |
| 2026-04-29 20:10 | 48.57652 | -3.86077 | 2152 ft | 246 kts | 298° |
| 2026-04-29 20:10 | 48.58470 | -3.88402 | 2022 ft | 235 kts | 296° |
| 2026-04-29 20:10 | 48.59062 | -3.90584 | 1964 ft | 216 kts | 271° |
| 2026-04-29 20:10 | 48.58723 | -3.92579 | 1871 ft | 187 kts | 222° |
| 2026-04-29 20:11 | 48.58074 | -3.94248 | 2011 ft | 186 kts | 243° |
| 2026-04-29 20:11 | 48.57650 | -3.96090 | 2006 ft | 185 kts | 239° |
| 2026-04-29 20:11 | 48.57183 | -3.97938 | 2025 ft | 192 kts | 242° |
| 2026-04-29 20:11 | 48.56746 | -3.99836 | 2027 ft | 194 kts | 241° |
| 2026-04-29 20:12 | 48.56284 | -4.01774 | 1878 ft | 199 kts | 242° |
| 2026-04-29 20:12 | 48.55815 | -4.03741 | 1625 ft | 198 kts | 243° |
| 2026-04-29 20:12 | 48.55397 | -4.05590 | 1390 ft | 172 kts | 242° |
| 2026-04-29 20:12 | 48.55006 | -4.07221 | 1191 ft | 160 kts | 249° |
| 2026-04-29 20:13 | 48.54882 | -4.08900 | 1115 ft | 169 kts | 272° |
| 2026-04-29 20:13 | 48.54951 | -4.10064 | 1069 ft | 163 kts | 275° |
| 2026-04-29 20:13 | 48.55127 | -4.12363 | 1024 ft | 168 kts | 277° |
| 2026-04-29 20:13 | 48.55255 | -4.14081 | 1009 ft | 163 kts | 273° |
| 2026-04-29 20:14 | 48.55182 | -4.15782 | 1083 ft | 161 kts | 262° |
| 2026-04-29 20:14 | 48.55051 | -4.17505 | 1116 ft | 168 kts | 261° |
| 2026-04-29 20:14 | 48.54874 | -4.19175 | 1261 ft | 153 kts | 243° |
| 2026-04-29 20:14 | 48.54229 | -4.20366 | 1322 ft | 148 kts | 192° |
| 2026-04-29 20:15 | 48.53377 | -4.20138 | 1472 ft | 122 kts | 143° |
| 2026-04-29 20:15 | 48.52607 | -4.19310 | 962 ft | 140 kts | 115° |
| 2026-04-29 20:15 | 48.52503 | -4.17902 | 733 ft | 144 kts | 79° |
| 2026-04-29 20:15 | 48.52783 | -4.16514 | 376 ft | 129 kts | 73° |
| 2026-04-29 20:16 | 48.53008 | -4.15376 | 350 ft | 94 kts | 74° |
| 2026-04-29 20:16 | 48.53117 | -4.14808 | 355 ft | 42 kts | 73° |
| 2026-04-29 20:16 | 48.53183 | -4.14453 | 355 ft | 31 kts | 76° |
| 2026-04-29 20:16 | 48.53195 | -4.14192 | 354 ft | 19 kts | 143° |
| 2026-04-29 20:17 | 48.53084 | -4.14131 | 353 ft | 16 kts | 166° |
| 2026-04-29 20:17 | 48.52960 | -4.14078 | 351 ft | 19 kts | 163° |
| 2026-04-29 20:17 | 48.52841 | -4.14033 | 354 ft | 14 kts | 186° |
| 2026-04-29 20:17 | 48.52810 | -4.14033 | 353 ft | 0 kts | 150° |
| 2026-04-29 20:18 | 48.52771 | -4.14053 | 353 ft | 11 kts | 239° |
| 2026-04-29 20:18 | 48.52738 | -4.14188 | 351 ft | 14 kts | 251° |
| 2026-04-29 20:18 | 48.52712 | -4.14314 | 353 ft | 12 kts | 255° |
| 2026-04-29 20:18 | 48.52690 | -4.14450 | 355 ft | 14 kts | 256° |
| 2026-04-29 20:19 | 48.52655 | -4.14460 | 354 ft | 6 kts | 90° |
| 2026-04-29 20:19 | 48.52657 | -4.14454 | 353 ft | 0 kts | 62° |